createdAt,value
2022-09-09T00:01:34.271Z,100438.31
2022-09-09T00:04:06.685Z,100426.75
2022-09-09T00:06:38.500Z,100425.19
2022-09-09T00:09:13.903Z,100422.38
2022-09-09T00:12:11.824Z,100429.25
2022-09-09T00:15:06.944Z,100431.03
2022-09-09T00:18:06.639Z,100427.72
2022-09-09T00:20:42.464Z,100424.28
2022-09-09T00:23:31.938Z,100423.31
2022-09-09T00:26:31.965Z,100423.00
2022-09-09T00:29:10.730Z,100425.19
2022-09-09T00:31:38.216Z,100419.38
2022-09-09T00:34:17.371Z,100414.44
2022-09-09T00:36:46.856Z,100410.25
2022-09-09T00:39:42.727Z,100403.91
2022-09-09T00:42:33.817Z,100401.09
2022-09-09T00:45:03.027Z,100400.28
2022-09-09T00:47:46.676Z,100407.25
2022-09-09T00:50:13.044Z,100400.97
2022-09-09T00:53:03.640Z,100396.44
2022-09-09T00:55:33.367Z,100401.69
2022-09-09T00:57:59.799Z,100401.28
2022-09-09T01:00:43.604Z,100398.88
2022-09-09T01:03:18.658Z,100399.53
2022-09-09T01:05:54.027Z,100402.06
2022-09-09T01:08:37.361Z,100403.59
2022-09-09T01:11:04.458Z,100392.19
2022-09-09T01:13:36.493Z,100391.88
2022-09-09T01:16:06.162Z,100393.22
2022-09-09T01:18:41.692Z,100386.31
2022-09-09T01:21:21.844Z,100377.25
2022-09-09T01:24:16.734Z,100376.38
2022-09-09T01:26:44.952Z,100376.63
2022-09-09T01:29:15.425Z,100374.44
2022-09-09T01:31:59.943Z,100369.47
2022-09-09T01:34:32.712Z,100375.78
2022-09-09T01:37:07.545Z,100373.88
2022-09-09T01:39:36.737Z,100382.28
2022-09-09T01:42:06.077Z,100371.41
2022-09-09T01:44:33.002Z,100375.13
2022-09-09T01:46:59.773Z,100373.41
2022-09-09T01:49:26.170Z,100380.22
2022-09-09T01:51:55.968Z,100365.53
2022-09-09T01:54:25.241Z,100373.41
2022-09-09T01:57:11.470Z,100380.38
2022-09-09T02:00:14.281Z,100383.16
2022-09-09T02:03:06.487Z,100385.66
2022-09-09T02:05:56.762Z,100376.25
2022-09-09T02:08:48.060Z,100378.59
2022-09-09T02:11:20.269Z,100378.72
2022-09-09T02:13:49.401Z,100384.25
2022-09-09T02:16:27.453Z,100385.03
2022-09-09T02:19:02.517Z,100387.09
2022-09-09T02:21:31.424Z,100381.31
2022-09-09T02:24:00.440Z,100379.53
2022-09-09T02:26:27.696Z,100381.31
2022-09-09T02:28:58.570Z,100384.00
2022-09-09T02:31:25.872Z,100384.78
2022-09-09T02:33:56.412Z,100385.59
2022-09-09T02:36:26.788Z,100389.88
2022-09-09T02:38:54.872Z,100388.00
2022-09-09T02:41:26.932Z,100392.91
2022-09-09T02:43:53.323Z,100377.09
2022-09-09T02:46:37.969Z,100378.53
2022-09-09T02:49:11.269Z,100380.88
2022-09-09T02:51:40.669Z,100381.50
2022-09-09T02:54:15.204Z,100379.41
2022-09-09T02:56:51.430Z,100374.34
2022-09-09T02:59:19.057Z,100370.69
2022-09-09T03:01:45.992Z,100372.22
2022-09-09T03:04:12.466Z,100368.50
2022-09-09T03:06:38.869Z,100368.09
2022-09-09T03:09:05.620Z,100372.41
2022-09-09T03:11:32.192Z,100369.81
2022-09-09T03:13:58.703Z,100378.69
2022-09-09T03:16:25.413Z,100377.00
2022-09-09T03:18:51.893Z,100383.00
2022-09-09T03:21:18.625Z,100379.84
2022-09-09T03:23:45.936Z,100374.06
2022-09-09T03:26:12.714Z,100369.66
2022-09-09T03:28:39.108Z,100358.66
2022-09-09T03:31:06.537Z,100351.31
2022-09-09T03:33:32.960Z,100360.84
2022-09-09T03:35:59.347Z,100364.44
2022-09-09T03:38:26.322Z,100364.31
2022-09-09T03:40:58.145Z,100361.06
2022-09-09T03:43:26.601Z,100359.88
2022-09-09T03:45:54.132Z,100356.47
2022-09-09T03:48:20.597Z,100356.75
2022-09-09T03:50:48.644Z,100360.72
2022-09-09T03:53:16.149Z,100353.97
2022-09-09T03:55:50.909Z,100356.66
2022-09-09T03:58:19.565Z,100359.88
2022-09-09T04:01:09.950Z,100359.00
2022-09-09T04:03:36.470Z,100364.44
2022-09-09T04:06:05.139Z,100359.69
2022-09-09T04:08:34.722Z,100353.09
2022-09-09T04:11:02.688Z,100346.00
2022-09-09T04:13:29.509Z,100339.00
2022-09-09T04:15:58.824Z,100346.00
2022-09-09T04:18:26.943Z,100340.78
2022-09-09T04:20:54.124Z,100331.94
2022-09-09T04:23:21.535Z,100335.84
2022-09-09T04:25:53.463Z,100321.94
2022-09-09T04:28:23.166Z,100330.50
2022-09-09T04:30:49.569Z,100321.94
2022-09-09T04:33:16.216Z,100332.16
2022-09-09T04:35:51.100Z,100338.88
2022-09-09T04:38:18.503Z,100332.94
2022-09-09T04:40:48.325Z,100335.66
2022-09-09T04:43:15.703Z,100345.47
2022-09-09T04:45:48.221Z,100343.88
2022-09-09T04:48:15.027Z,100346.69
2022-09-09T04:50:41.577Z,100333.50
2022-09-09T04:53:08.492Z,100348.06
2022-09-09T04:55:35.969Z,100346.16
2022-09-09T04:58:06.780Z,100353.44
2022-09-09T05:00:34.818Z,100354.25
2022-09-09T05:03:05.036Z,100364.66
2022-09-09T05:05:31.581Z,100380.38
2022-09-09T05:08:09.480Z,100377.78
2022-09-09T05:10:38.836Z,100385.91
2022-09-09T05:13:06.079Z,100392.28
2022-09-09T05:15:32.478Z,100387.16
2022-09-09T05:18:01.489Z,100389.88
2022-09-09T05:20:28.373Z,100394.97
2022-09-09T05:22:55.941Z,100400.75
2022-09-09T05:25:23.163Z,100403.59
2022-09-09T05:27:50.498Z,100399.09
2022-09-09T05:30:17.626Z,100413.28
2022-09-09T05:32:44.345Z,100403.16
2022-09-09T05:35:10.967Z,100405.97
2022-09-09T05:37:37.422Z,100410.22
2022-09-09T05:40:04.260Z,100417.38
2022-09-09T05:42:32.096Z,100429.00
2022-09-09T05:44:59.097Z,100417.78
2022-09-09T05:47:25.725Z,100421.28
2022-09-09T05:49:52.509Z,100420.41
2022-09-09T05:52:18.902Z,100416.34
2022-09-09T05:54:45.272Z,100419.44
2022-09-09T05:57:11.679Z,100426.72
2022-09-09T05:59:39.232Z,100425.97
2022-09-09T06:02:05.768Z,100427.97
2022-09-09T06:04:32.278Z,100425.19
2022-09-09T06:06:58.665Z,100424.94
2022-09-09T06:09:25.112Z,100423.78
2022-09-09T06:11:51.604Z,100432.78
2022-09-09T06:14:19.005Z,100436.38
2022-09-09T06:16:46.172Z,100447.16
2022-09-09T06:19:13.728Z,100442.28
2022-09-09T06:21:41.104Z,100430.78
2022-09-09T06:24:08.501Z,100433.50
2022-09-09T06:26:37.634Z,100441.34
2022-09-09T06:29:05.321Z,100445.97
2022-09-09T06:31:35.160Z,100442.00
2022-09-09T06:34:02.074Z,100447.47
2022-09-09T06:36:31.947Z,100452.22
2022-09-09T06:38:58.880Z,100452.34
2022-09-09T06:41:27.764Z,100455.69
2022-09-09T06:43:54.304Z,100463.06
2022-09-09T06:46:32.501Z,100456.88
2022-09-09T06:49:00.778Z,100463.25
2022-09-09T06:51:32.433Z,100469.84
2022-09-09T06:54:03.116Z,100470.34
2022-09-09T06:56:34.014Z,100478.41
2022-09-09T06:59:04.731Z,100479.38
2022-09-09T07:01:34.549Z,100477.50
2022-09-09T07:04:01.893Z,100477.31
2022-09-09T07:06:31.119Z,100475.91
2022-09-09T07:09:05.886Z,100478.47
2022-09-09T07:11:35.112Z,100475.13
2022-09-09T07:14:02.152Z,100477.00
2022-09-09T07:16:30.502Z,100469.84
2022-09-09T07:18:58.757Z,100477.03
2022-09-09T07:21:27.467Z,100472.00
2022-09-09T07:23:55.418Z,100475.00
2022-09-09T07:26:26.332Z,100469.47
2022-09-09T07:28:53.161Z,100481.03
2022-09-09T07:31:28.828Z,100476.88
2022-09-09T07:33:55.281Z,100481.03
2022-09-09T07:36:24.570Z,100497.97
2022-09-09T07:38:57.189Z,100496.25
2022-09-09T07:41:32.216Z,100491.25
2022-09-09T07:43:59.275Z,100493.16
2022-09-09T07:46:27.354Z,100500.91
2022-09-09T07:48:56.637Z,100499.59
2022-09-09T07:51:26.672Z,100497.63
2022-09-09T07:54:00.974Z,100498.47
2022-09-09T07:56:28.986Z,100509.72
2022-09-09T07:58:57.203Z,100503.16
2022-09-09T08:01:30.885Z,100508.06
2022-09-09T08:04:03.903Z,100506.44
2022-09-09T08:06:38.433Z,100510.91
2022-09-09T08:09:05.896Z,100522.78
2022-09-09T08:11:38.671Z,100523.41
2022-09-09T08:14:07.103Z,100519.53
2022-09-09T08:16:37.364Z,100528.63
2022-09-09T08:19:04.588Z,100518.56
2022-09-09T08:21:34.088Z,100530.53
2022-09-09T08:24:02.615Z,100529.13
2022-09-09T08:26:42.426Z,100536.38
2022-09-09T08:29:11.112Z,100534.56
2022-09-09T08:31:52.191Z,100539.25
2022-09-09T08:34:20.927Z,100547.09
2022-09-09T08:36:48.950Z,100536.81
2022-09-09T08:39:17.267Z,100540.41
2022-09-09T08:42:17.155Z,100536.31
2022-09-09T08:44:55.750Z,100541.44
2022-09-09T08:47:59.736Z,100548.88
2022-09-09T08:50:36.354Z,100554.03
2022-09-09T08:53:10.341Z,100553.13
2022-09-09T08:55:45.701Z,100555.72
2022-09-09T08:58:33.989Z,100557.75
2022-09-09T09:01:36.151Z,100548.84
2022-09-09T09:04:21.072Z,100551.94
2022-09-09T09:07:13.293Z,100542.41
2022-09-09T09:10:01.361Z,100536.69
2022-09-09T09:12:33.907Z,100539.69
2022-09-09T09:15:00.792Z,100545.00
2022-09-09T09:17:32.281Z,100548.47
2022-09-09T09:20:00.553Z,100547.72
2022-09-09T09:22:33.876Z,100551.03
2022-09-09T09:25:32.428Z,100554.19
2022-09-09T09:28:18.346Z,100555.81
2022-09-09T09:31:13.585Z,100566.03
2022-09-09T09:33:53.734Z,100555.97
2022-09-09T09:36:24.431Z,100555.41
2022-09-09T09:41:48.703Z,100552.00
2022-09-09T09:44:32.707Z,100555.97
2022-09-09T09:47:22.831Z,100557.53
2022-09-09T09:49:54.501Z,100555.97
2022-09-09T09:52:24.900Z,100548.59
2022-09-09T09:54:53.216Z,100557.16
2022-09-09T09:57:32.754Z,100550.78
2022-09-09T10:00:06.693Z,100536.06
2022-09-09T10:02:39.869Z,100546.09
2022-09-09T10:05:16.754Z,100534.34
2022-09-09T10:07:53.889Z,100532.09
2022-09-09T10:10:32.657Z,100528.38
2022-09-09T10:13:24.939Z,100527.97
2022-09-09T10:16:07.609Z,100524.41
2022-09-09T10:19:02.435Z,100517.22
2022-09-09T10:21:37.588Z,100515.03
2022-09-09T10:24:30.675Z,100509.16
2022-09-09T10:27:18.027Z,100500.38
2022-09-09T10:30:25.182Z,100509.88
2022-09-09T10:33:07.920Z,100511.59
2022-09-09T10:35:47.801Z,100509.81
2022-09-09T10:38:37.545Z,100506.56
2022-09-09T10:41:26.860Z,100509.78
2022-09-09T10:44:37.729Z,100505.00
2022-09-09T10:47:29.843Z,100508.41
2022-09-09T10:51:00.359Z,100500.03
2022-09-09T10:53:39.913Z,100496.63
2022-09-09T10:56:22.229Z,100488.84
2022-09-09T10:58:59.294Z,100494.72
2022-09-09T11:01:50.946Z,100489.13
2022-09-09T11:04:31.918Z,100486.84
2022-09-09T11:07:07.432Z,100484.41
2022-09-09T11:09:50.937Z,100476.59
2022-09-09T11:12:21.232Z,100477.81
2022-09-09T11:14:56.018Z,100482.50
2022-09-09T11:17:34.680Z,100473.16
2022-09-09T11:20:01.653Z,100473.91
2022-09-09T11:22:56.312Z,100474.63
2022-09-09T11:25:35.842Z,100470.94
2022-09-09T11:28:22.038Z,100463.31
2022-09-09T11:30:57.165Z,100453.31
2022-09-09T11:33:42.735Z,100448.63
2022-09-09T11:36:37.132Z,100451.13
2022-09-09T11:39:27.774Z,100455.13
2022-09-09T11:41:54.815Z,100448.75
2022-09-09T11:44:30.997Z,100443.66
2022-09-09T11:46:57.685Z,100443.66
2022-09-09T11:49:44.548Z,100444.78
2022-09-09T11:52:15.129Z,100435.25
2022-09-09T11:54:50.058Z,100424.91
2022-09-09T11:57:31.973Z,100431.16
2022-09-09T11:59:59.893Z,100424.06
2022-09-09T12:02:33.542Z,100420.81
2022-09-09T12:05:09.730Z,100423.88
2022-09-09T12:07:47.480Z,100425.63
2022-09-09T12:10:28.277Z,100415.44
2022-09-09T12:12:54.742Z,100415.72
2022-09-09T12:15:28.937Z,100416.75
2022-09-09T12:18:02.988Z,100416.63
2022-09-09T12:20:37.883Z,100411.72
2022-09-09T12:23:07.127Z,100415.72
2022-09-09T12:26:16.659Z,100409.13
2022-09-09T12:28:51.832Z,100408.66
2022-09-09T12:31:31.570Z,100403.41
2022-09-09T12:34:26.382Z,100395.75
2022-09-09T12:37:00.872Z,100402.97
2022-09-09T12:39:34.397Z,100388.81
2022-09-09T12:42:01.100Z,100397.06
2022-09-09T12:44:30.933Z,100387.66
2022-09-09T12:47:01.844Z,100394.91
2022-09-09T12:49:39.537Z,100392.34
2022-09-09T12:52:27.632Z,100385.56
2022-09-09T12:54:54.786Z,100381.00
2022-09-09T12:57:26.399Z,100381.53
2022-09-09T12:59:54.206Z,100374.06
2022-09-09T13:02:26.429Z,100372.16
2022-09-09T13:04:56.123Z,100372.38
2022-09-09T13:07:22.867Z,100364.81
2022-09-09T13:09:50.313Z,100361.34
2022-09-09T13:12:23.548Z,100353.59
2022-09-09T13:14:53.832Z,100356.22
2022-09-09T13:17:26.310Z,100351.53
2022-09-09T13:19:53.914Z,100345.22
2022-09-09T13:22:26.167Z,100349.53
2022-09-09T13:25:18.448Z,100349.38
2022-09-09T13:28:03.497Z,100345.03
2022-09-09T13:30:41.121Z,100338.63
2022-09-09T13:33:13.886Z,100340.19
2022-09-09T13:35:58.368Z,100335.31
2022-09-09T13:38:27.818Z,100332.94
2022-09-09T13:41:05.286Z,100321.94
2022-09-09T13:43:39.560Z,100326.16
2022-09-09T13:46:29.369Z,100322.53
2022-09-09T13:49:00.689Z,100320.84
2022-09-09T13:51:51.606Z,100315.81
2022-09-09T13:54:20.816Z,100316.81
2022-09-09T13:56:48.163Z,100307.09
2022-09-09T13:59:23.110Z,100312.38
2022-09-09T14:01:53.352Z,100305.41
2022-09-09T14:04:23.300Z,100303.88
2022-09-09T14:06:51.248Z,100311.63
2022-09-09T14:09:19.134Z,100307.22
2022-09-09T14:11:47.064Z,100307.41
2022-09-09T14:14:13.566Z,100305.84
2022-09-09T14:16:39.985Z,100303.03
2022-09-09T14:19:06.375Z,100301.13
2022-09-09T14:21:33.569Z,100300.25
2022-09-09T14:24:00.116Z,100295.63
2022-09-09T14:26:27.228Z,100298.09
2022-09-09T14:28:55.982Z,100294.63
2022-09-09T14:31:23.905Z,100296.53
2022-09-09T14:33:51.714Z,100299.25
2022-09-09T14:36:18.215Z,100301.16
2022-09-09T14:38:44.640Z,100298.59
2022-09-09T14:41:18.812Z,100300.25
2022-09-09T14:43:46.650Z,100302.13
2022-09-09T14:46:15.476Z,100301.16
2022-09-09T14:48:42.333Z,100301.88
2022-09-09T14:51:20.395Z,100300.34
2022-09-09T14:53:47.772Z,100303.09
2022-09-09T14:56:16.901Z,100292.69
2022-09-09T14:58:43.810Z,100291.47
2022-09-09T15:01:12.587Z,100286.97
2022-09-09T15:03:48.810Z,100287.97
2022-09-09T15:06:15.882Z,100287.03
2022-09-09T15:08:44.100Z,100290.59
2022-09-09T15:11:13.041Z,100288.94
2022-09-09T15:13:41.684Z,100286.31
2022-09-09T15:16:10.810Z,100288.09
2022-09-09T15:18:37.649Z,100287.97
2022-09-09T15:21:05.867Z,100278.25
2022-09-09T15:23:33.874Z,100273.84
2022-09-09T15:26:00.306Z,100271.25
2022-09-09T15:28:26.917Z,100273.03
2022-09-09T15:30:54.746Z,100271.38
2022-09-09T15:33:23.020Z,100272.31
2022-09-09T15:35:50.780Z,100269.66
2022-09-09T15:38:18.281Z,100267.97
2022-09-09T15:40:44.819Z,100266.22
2022-09-09T15:43:11.695Z,100259.91
2022-09-09T15:45:38.460Z,100259.91
2022-09-09T15:48:05.475Z,100262.75
2022-09-09T15:50:33.331Z,100261.03
2022-09-09T15:53:00.880Z,100256.53
2022-09-09T15:55:27.336Z,100259.97
2022-09-09T15:57:53.943Z,100266.03
2022-09-09T16:00:20.965Z,100256.31
2022-09-09T16:02:48.202Z,100252.75
2022-09-09T16:05:14.786Z,100249.28
2022-09-09T16:07:43.315Z,100256.34
2022-09-09T16:10:11.701Z,100252.88
2022-09-09T16:12:38.181Z,100253.75
2022-09-09T16:15:04.834Z,100258.13
2022-09-09T16:17:31.301Z,100254.56
2022-09-09T16:19:58.569Z,100254.41
2022-09-09T16:22:25.454Z,100256.09
2022-09-09T16:24:51.870Z,100250.81
2022-09-09T16:27:19.058Z,100253.41
2022-09-09T16:29:46.239Z,100249.03
2022-09-09T16:32:12.893Z,100258.69
2022-09-09T16:34:39.303Z,100252.50
2022-09-09T16:37:05.819Z,100259.53
2022-09-09T16:39:32.370Z,100259.50
2022-09-09T16:41:58.847Z,100257.66
2022-09-09T16:44:27.027Z,100253.22
2022-09-09T16:46:59.632Z,100262.88
2022-09-09T16:49:28.495Z,100264.63
2022-09-09T16:51:54.935Z,100264.56
2022-09-09T16:54:22.862Z,100266.22
2022-09-09T16:56:49.463Z,100270.56
2022-09-09T16:59:20.667Z,100266.13
2022-09-09T17:01:49.514Z,100269.56
2022-09-09T17:04:21.359Z,100266.03
2022-09-09T17:06:53.134Z,100267.75
2022-09-09T17:09:20.771Z,100270.31
2022-09-09T17:11:48.828Z,100276.38
2022-09-09T17:14:18.139Z,100275.41
2022-09-09T17:16:45.173Z,100270.94
2022-09-09T17:19:12.841Z,100264.72
2022-09-09T17:21:54.618Z,100275.16
2022-09-09T17:24:27.444Z,100273.28
2022-09-09T17:26:55.268Z,100279.34
2022-09-09T17:29:22.184Z,100274.81
2022-09-09T17:31:48.617Z,100278.19
2022-09-09T17:34:15.251Z,100280.69
2022-09-09T17:36:41.930Z,100282.28
2022-09-09T17:39:09.078Z,100283.03
2022-09-09T17:41:40.029Z,100283.72
2022-09-09T17:46:41.920Z,100278.25
2022-09-09T17:49:13.534Z,100275.44
2022-09-09T17:51:42.270Z,100285.03
2022-09-09T17:54:11.795Z,100284.84
2022-09-09T17:56:39.081Z,100288.97
2022-09-09T17:59:10.389Z,100279.16
2022-09-09T18:01:39.528Z,100285.16
2022-09-09T18:04:08.049Z,100286.88
2022-09-09T18:06:37.149Z,100292.97
2022-09-09T18:09:25.315Z,100296.19
2022-09-09T18:11:54.677Z,100290.66
2022-09-09T18:14:25.375Z,100294.91
2022-09-09T18:16:52.435Z,100293.84
2022-09-09T18:19:22.632Z,100299.13
2022-09-09T18:21:50.040Z,100304.25
2022-09-09T18:24:17.877Z,100306.69
2022-09-09T18:26:45.529Z,100311.66
2022-09-09T18:29:14.656Z,100309.59
2022-09-09T18:31:42.460Z,100314.41
2022-09-09T18:34:11.772Z,100312.13
2022-09-09T18:36:45.309Z,100315.31
2022-09-09T18:39:13.992Z,100323.06
2022-09-09T18:41:43.233Z,100322.03
2022-09-09T18:44:19.036Z,100324.63
2022-09-09T18:46:45.469Z,100327.47
2022-09-09T18:49:12.475Z,100326.75
2022-09-09T18:51:41.164Z,100331.00
2022-09-09T18:54:12.109Z,100336.91
2022-09-09T18:56:39.099Z,100333.44
2022-09-09T18:59:07.749Z,100335.22
2022-09-09T19:01:37.687Z,100336.91
2022-09-09T19:04:06.154Z,100340.22
2022-09-09T19:06:34.791Z,100338.25
2022-09-09T19:09:03.726Z,100341.75
2022-09-09T19:11:33.535Z,100337.31
2022-09-09T19:14:04.781Z,100339.00
2022-09-09T19:16:34.321Z,100334.56
2022-09-09T19:19:04.265Z,100337.97
2022-09-09T19:21:33.641Z,100340.47
2022-09-09T19:24:15.433Z,100344.78
2022-09-09T19:26:45.655Z,100346.31
2022-09-09T19:29:21.369Z,100352.22
2022-09-09T19:32:14.986Z,100350.94
2022-09-09T19:34:36.353Z,100344.47
2022-09-09T19:37:02.769Z,100341.69
2022-09-09T19:39:29.404Z,100353.88
2022-09-09T19:41:55.880Z,100345.28
2022-09-09T19:44:22.596Z,100348.00
2022-09-09T19:46:49.938Z,100352.34
2022-09-09T19:49:17.554Z,100354.00
2022-09-09T19:51:44.035Z,100357.28
2022-09-09T19:54:13.214Z,100365.22
2022-09-09T19:56:41.184Z,100364.19
2022-09-09T19:59:09.640Z,100378.97
2022-09-09T20:01:40.326Z,100376.94
2022-09-09T20:04:08.574Z,100373.47
2022-09-09T20:06:37.411Z,100383.84
2022-09-09T20:09:05.962Z,100379.94
2022-09-09T20:11:32.761Z,100385.53
2022-09-09T20:13:59.306Z,100379.88
2022-09-09T20:16:28.896Z,100379.75
2022-09-09T20:18:57.511Z,100378.94
2022-09-09T20:21:32.345Z,100373.63
2022-09-09T20:24:04.573Z,100388.25
2022-09-09T20:26:33.508Z,100377.63
2022-09-09T20:29:00.843Z,100384.72
2022-09-09T20:31:29.602Z,100376.56
2022-09-09T20:36:32.242Z,100373.38
2022-09-09T20:39:01.478Z,100377.56
2022-09-09T20:41:31.117Z,100377.53
2022-09-09T20:44:01.477Z,100377.63
2022-09-09T20:46:33.873Z,100382.63
2022-09-09T20:49:03.067Z,100380.69
2022-09-09T20:51:32.966Z,100381.47
2022-09-09T20:54:13.824Z,100372.47
2022-09-09T20:56:42.481Z,100376.63
2022-09-09T20:59:12.264Z,100372.84
2022-09-09T21:01:39.385Z,100382.47
2022-09-09T21:04:06.796Z,100381.75
2022-09-09T21:06:33.187Z,100384.91
2022-09-09T21:08:59.673Z,100392.59
2022-09-09T21:11:26.242Z,100393.06
2022-09-09T21:13:52.718Z,100394.03
2022-09-09T21:16:21.071Z,100387.78
2022-09-09T21:18:49.296Z,100383.56
2022-09-09T21:21:18.972Z,100388.75
2022-09-09T21:23:45.400Z,100389.63
2022-09-09T21:26:11.791Z,100383.38
2022-09-09T21:28:38.426Z,100388.50
2022-09-09T21:31:09.065Z,100398.19
2022-09-09T21:33:35.473Z,100397.13
2022-09-09T21:36:05.910Z,100406.56
2022-09-09T21:38:32.955Z,100401.28
2022-09-09T21:41:07.162Z,100395.97
2022-09-09T21:43:34.004Z,100397.19
2022-09-09T21:46:04.088Z,100401.41
2022-09-09T21:48:31.535Z,100392.66
2022-09-09T21:51:03.801Z,100409.06
2022-09-09T21:53:31.326Z,100401.09
2022-09-09T21:56:02.678Z,100412.28
2022-09-09T21:58:30.155Z,100415.72
2022-09-09T22:00:56.757Z,100426.91
2022-09-09T22:03:23.600Z,100420.13
2022-09-09T22:05:53.809Z,100419.88
2022-09-09T22:08:21.197Z,100415.66
2022-09-09T22:10:47.741Z,100415.53
2022-09-09T22:13:17.875Z,100410.25
2022-09-09T22:15:45.957Z,100403.59
2022-09-09T22:18:14.063Z,100410.63
2022-09-09T22:20:43.060Z,100398.22
2022-09-09T22:23:10.278Z,100403.72
2022-09-09T22:25:38.025Z,100402.59
2022-09-09T22:28:06.890Z,100389.16
2022-09-09T22:30:33.978Z,100393.63
2022-09-09T22:33:01.191Z,100402.97
2022-09-09T22:35:28.992Z,100392.44
2022-09-09T22:37:55.866Z,100394.41
2022-09-09T22:40:22.618Z,100396.31
2022-09-09T22:42:52.583Z,100407.38
2022-09-09T22:45:20.846Z,100415.03
2022-09-09T22:47:47.641Z,100422.56
2022-09-09T22:50:14.336Z,100425.88
2022-09-09T22:52:40.753Z,100431.88
2022-09-09T22:55:07.817Z,100430.16
2022-09-09T22:57:34.234Z,100435.38
2022-09-09T23:00:01.353Z,100446.03
2022-09-09T23:02:28.994Z,100459.03
2022-09-09T23:04:55.414Z,100479.19
2022-09-09T23:07:23.362Z,100516.78
2022-09-09T23:09:49.826Z,100527.63
2022-09-09T23:12:18.808Z,100521.22
2022-09-09T23:14:45.225Z,100516.66
2022-09-09T23:17:14.554Z,100504.00
2022-09-09T23:19:41.493Z,100508.13
2022-09-09T23:22:07.884Z,100488.81
2022-09-09T23:24:34.675Z,100505.31
2022-09-09T23:27:01.104Z,100520.59
2022-09-09T23:29:27.564Z,100545.13
2022-09-09T23:31:53.935Z,100530.50
2022-09-09T23:34:20.386Z,100526.28
2022-09-09T23:36:47.109Z,100518.41
2022-09-09T23:39:13.574Z,100527.84
2022-09-09T23:41:40.256Z,100541.13
2022-09-09T23:44:07.430Z,100536.53
2022-09-09T23:46:35.131Z,100538.44
2022-09-09T23:49:02.558Z,100530.56
2022-09-09T23:51:30.503Z,100528.00
2022-09-09T23:53:59.087Z,100534.53
2022-09-09T23:56:37.701Z,100527.72
2022-09-09T23:59:07.939Z,100526.53
